createdAt,value
2022-11-15T00:00:24.059Z,6.50
2022-11-15T00:03:10.174Z,6.40
2022-11-15T00:05:55.781Z,6.50
2022-11-15T00:08:42.173Z,6.40
2022-11-15T00:11:28.491Z,6.40
2022-11-15T00:14:14.319Z,6.30
2022-11-15T00:16:59.946Z,6.40
2022-11-15T00:19:46.089Z,6.40
2022-11-15T00:22:34.952Z,6.40
2022-11-15T00:25:21.529Z,6.30
2022-11-15T00:28:07.635Z,6.30
2022-11-15T00:30:54.272Z,6.30
2022-11-15T00:33:40.292Z,6.30
2022-11-15T00:36:26.438Z,6.30
2022-11-15T00:39:12.019Z,6.30
2022-11-15T00:41:58.739Z,6.30
2022-11-15T00:44:44.613Z,6.30
2022-11-15T00:47:31.083Z,6.30
2022-11-15T00:50:17.109Z,6.20
2022-11-15T00:53:59.540Z,6.30
2022-11-15T00:56:45.896Z,6.20
2022-11-15T00:59:32.023Z,6.20
2022-11-15T01:02:18.932Z,6.20
2022-11-15T01:05:05.427Z,6.10
2022-11-15T01:07:55.285Z,6.10
2022-11-15T01:10:41.531Z,6.10
2022-11-15T01:13:27.409Z,6.10
2022-11-15T01:16:16.225Z,6.10
2022-11-15T01:19:02.672Z,6.00
2022-11-15T01:21:52.820Z,6.00
2022-11-15T01:24:39.087Z,5.90
2022-11-15T01:27:25.699Z,6.00
2022-11-15T01:30:11.749Z,6.00
2022-11-15T01:32:58.106Z,6.00
2022-11-15T01:35:43.903Z,5.90
2022-11-15T01:38:30.183Z,5.90
2022-11-15T01:41:19.037Z,6.00
2022-11-15T01:44:35.889Z,6.00
2022-11-15T01:47:30.351Z,6.00
2022-11-15T01:50:21.218Z,6.00
2022-11-15T01:53:07.830Z,5.90
2022-11-15T01:55:55.563Z,6.00
2022-11-15T01:58:43.100Z,5.90
2022-11-15T02:01:31.808Z,6.00
2022-11-15T02:04:20.162Z,5.90
2022-11-15T02:07:08.710Z,5.90
2022-11-15T02:09:55.984Z,5.90
2022-11-15T02:12:42.712Z,5.90
2022-11-15T02:15:37.521Z,5.90
2022-11-15T02:18:30.357Z,6.00
2022-11-15T02:21:41.180Z,5.90
2022-11-15T02:24:51.794Z,5.80
2022-11-15T02:27:37.779Z,5.90
2022-11-15T02:30:31.201Z,5.90
2022-11-15T02:33:35.222Z,5.90
2022-11-15T02:36:27.998Z,5.90
2022-11-15T02:39:33.183Z,5.90
2022-11-15T02:42:45.644Z,5.80
2022-11-15T02:45:38.229Z,5.70
2022-11-15T02:48:26.682Z,5.70
2022-11-15T02:51:14.716Z,5.70
2022-11-15T02:54:00.655Z,5.70
2022-11-15T02:56:47.470Z,5.70
2022-11-15T03:00:04.747Z,5.70
2022-11-15T03:02:53.307Z,5.70
2022-11-15T03:05:50.699Z,5.70
2022-11-15T03:08:51.840Z,5.70
2022-11-15T03:11:42.656Z,5.70
2022-11-15T03:14:37.034Z,5.70
2022-11-15T03:17:35.741Z,5.70
2022-11-15T03:20:22.004Z,5.70
2022-11-15T03:23:11.202Z,5.80
2022-11-15T03:25:59.578Z,5.70
2022-11-15T03:28:51.750Z,5.70
2022-11-15T03:31:50.325Z,5.70
2022-11-15T03:34:46.299Z,5.70
2022-11-15T03:37:58.635Z,5.70
2022-11-15T03:40:52.603Z,5.70
2022-11-15T03:44:00.844Z,5.70
2022-11-15T03:47:03.803Z,5.70
2022-11-15T03:49:56.959Z,5.80
2022-11-15T03:52:45.843Z,5.70
2022-11-15T03:55:33.767Z,5.70
2022-11-15T03:58:20.021Z,5.80
2022-11-15T04:01:06.223Z,5.80
2022-11-15T04:03:52.590Z,5.90
2022-11-15T04:06:38.356Z,5.80
2022-11-15T04:09:24.508Z,5.80
2022-11-15T04:12:10.604Z,5.80
2022-11-15T04:15:08.360Z,5.80
2022-11-15T04:17:57.423Z,5.80
2022-11-15T04:21:01.950Z,5.90
2022-11-15T04:24:08.381Z,5.90
2022-11-15T04:26:54.654Z,6.00
2022-11-15T04:29:40.825Z,6.00
2022-11-15T04:32:27.070Z,5.90
2022-11-15T04:35:13.358Z,5.90
2022-11-15T04:38:00.102Z,5.90
2022-11-15T04:40:46.143Z,5.90
2022-11-15T04:43:33.135Z,5.90
2022-11-15T04:46:19.324Z,5.90
2022-11-15T04:49:05.869Z,5.90
2022-11-15T04:51:51.449Z,5.90
2022-11-15T04:54:37.168Z,6.00
2022-11-15T04:57:23.229Z,5.80
2022-11-15T05:00:12.871Z,5.80
2022-11-15T05:03:17.715Z,5.90
2022-11-15T05:06:04.316Z,5.90
2022-11-15T05:08:50.462Z,5.90
2022-11-15T05:11:36.852Z,5.80
2022-11-15T05:14:22.877Z,5.80
2022-11-15T05:17:09.125Z,5.80
2022-11-15T05:19:55.527Z,5.90
2022-11-15T05:22:42.005Z,5.90
2022-11-15T05:25:28.403Z,6.80
2022-11-15T05:28:14.631Z,5.90
2022-11-15T05:31:08.202Z,5.90
2022-11-15T05:33:56.062Z,5.90
2022-11-15T05:36:48.560Z,6.00
2022-11-15T05:39:34.818Z,5.90
2022-11-15T05:42:20.750Z,5.80
2022-11-15T05:45:09.790Z,5.80
2022-11-15T05:47:57.858Z,5.80
2022-11-15T05:50:47.651Z,5.80
2022-11-15T05:53:34.680Z,5.80
2022-11-15T05:56:21.597Z,5.80
2022-11-15T05:59:09.348Z,5.80
2022-11-15T06:01:55.881Z,5.80
2022-11-15T06:04:41.771Z,5.80
2022-11-15T06:07:29.897Z,5.80
2022-11-15T06:10:15.942Z,5.80
2022-11-15T06:13:04.617Z,5.90
2022-11-15T06:15:50.652Z,5.80
2022-11-15T06:18:37.958Z,5.90
2022-11-15T06:21:23.833Z,5.80
2022-11-15T06:24:09.903Z,5.80
2022-11-15T06:26:55.972Z,5.80
2022-11-15T06:29:42.935Z,5.90
2022-11-15T06:32:31.308Z,5.80
2022-11-15T06:35:17.741Z,5.80
2022-11-15T06:38:09.363Z,5.90
2022-11-15T06:40:55.600Z,5.80
2022-11-15T06:43:42.290Z,5.90
2022-11-15T06:46:28.676Z,5.90
2022-11-15T06:49:15.537Z,5.90
2022-11-15T06:52:01.802Z,5.90
2022-11-15T06:54:47.603Z,5.90
2022-11-15T06:57:34.088Z,5.90
2022-11-15T07:00:21.844Z,6.00
2022-11-15T07:03:08.102Z,6.00
2022-11-15T07:05:56.110Z,6.00
2022-11-15T07:08:42.893Z,5.90
2022-11-15T07:11:29.070Z,6.20
2022-11-15T07:14:15.134Z,6.10
2022-11-15T07:17:00.645Z,6.10
2022-11-15T07:19:46.332Z,6.10
2022-11-15T07:22:31.854Z,6.20
2022-11-15T07:25:18.085Z,6.10
2022-11-15T07:28:04.547Z,6.10
2022-11-15T07:30:50.763Z,6.10
2022-11-15T07:33:36.836Z,6.10
2022-11-15T07:36:23.168Z,6.00
2022-11-15T07:39:09.254Z,5.90
2022-11-15T07:42:14.991Z,6.00
2022-11-15T07:45:00.488Z,6.00
2022-11-15T07:47:47.938Z,6.00
2022-11-15T07:50:33.907Z,6.00
2022-11-15T07:53:20.075Z,6.10
2022-11-15T07:56:09.040Z,6.10
2022-11-15T07:58:55.286Z,6.10
2022-11-15T08:01:41.527Z,6.10
2022-11-15T08:04:27.927Z,6.10
2022-11-15T08:07:14.381Z,6.10
2022-11-15T08:10:02.344Z,6.10
2022-11-15T08:12:48.454Z,6.10
2022-11-15T08:15:35.916Z,6.10
2022-11-15T08:18:21.911Z,6.00
2022-11-15T08:21:13.027Z,7.10
2022-11-15T08:24:02.832Z,6.10
2022-11-15T08:26:49.121Z,6.10
2022-11-15T08:29:34.828Z,6.10
2022-11-15T08:32:20.788Z,6.20
2022-11-15T08:35:07.363Z,6.30
2022-11-15T08:37:54.553Z,6.30
2022-11-15T08:40:40.326Z,6.40
2022-11-15T08:43:26.507Z,6.40
2022-11-15T08:46:14.762Z,6.40
2022-11-15T08:49:00.745Z,6.50
2022-11-15T08:51:46.604Z,6.40
2022-11-15T08:54:32.967Z,6.60
2022-11-15T08:57:18.852Z,6.40
2022-11-15T09:00:05.944Z,6.50
2022-11-15T09:02:51.775Z,6.60
2022-11-15T09:05:38.999Z,6.70
2022-11-15T09:08:46.665Z,6.70
2022-11-15T09:11:31.826Z,6.50
2022-11-15T09:14:17.843Z,6.60
2022-11-15T09:17:04.212Z,6.60
2022-11-15T09:19:49.782Z,6.70
2022-11-15T09:22:35.839Z,6.70
2022-11-15T09:25:21.781Z,6.60
2022-11-15T09:28:09.433Z,6.60
2022-11-15T09:31:04.698Z,6.70
2022-11-15T09:33:50.898Z,6.70
2022-11-15T09:36:36.572Z,7.70
2022-11-15T09:39:25.032Z,6.60
2022-11-15T09:42:26.073Z,6.50
2022-11-15T09:45:15.423Z,6.60
2022-11-15T09:48:48.689Z,6.50
2022-11-15T09:51:47.824Z,6.60
2022-11-15T09:57:47.644Z,6.60
2022-11-15T10:00:45.437Z,6.60
2022-11-15T10:03:13.681Z,6.60
2022-11-15T10:05:47.064Z,6.60
2022-11-15T10:08:22.517Z,6.80
2022-11-15T10:11:36.782Z,6.70
2022-11-15T10:14:01.797Z,6.80
2022-11-15T10:16:34.635Z,6.80
2022-11-15T10:19:06.571Z,6.80
2022-11-15T10:21:58.801Z,6.80
2022-11-15T10:24:31.964Z,6.90
2022-11-15T10:26:59.154Z,6.90
2022-11-15T10:29:27.515Z,6.90
2022-11-15T10:31:54.797Z,7.00
2022-11-15T10:34:24.543Z,7.40
2022-11-15T10:37:00.280Z,6.90
2022-11-15T10:39:28.260Z,6.80
2022-11-15T10:41:56.087Z,7.40
2022-11-15T10:44:33.317Z,6.90
2022-11-15T10:47:00.493Z,6.80
2022-11-15T10:49:30.553Z,6.80
2022-11-15T10:52:03.888Z,7.20
2022-11-15T10:54:48.450Z,6.90
2022-11-15T10:57:18.753Z,6.80
2022-11-15T10:59:49.562Z,6.90
2022-11-15T11:02:33.718Z,6.90
2022-11-15T11:05:02.953Z,6.90
2022-11-15T11:07:34.940Z,6.80
2022-11-15T11:10:49.672Z,6.80
2022-11-15T11:13:38.819Z,6.70
2022-11-15T11:16:15.423Z,6.80
2022-11-15T11:19:16.726Z,6.80
2022-11-15T11:22:07.976Z,6.90
2022-11-15T11:25:03.822Z,6.90
2022-11-15T11:27:51.409Z,7.00
2022-11-15T11:30:21.604Z,7.00
2022-11-15T11:33:07.506Z,7.10
2022-11-15T11:36:06.562Z,7.00
2022-11-15T11:38:44.548Z,7.10
2022-11-15T11:41:30.811Z,7.10
2022-11-15T11:44:08.621Z,7.10
2022-11-15T11:47:12.963Z,7.10
2022-11-15T11:49:50.903Z,7.20
2022-11-15T11:52:46.215Z,7.10
2022-11-15T11:55:29.274Z,7.10
2022-11-15T11:58:28.985Z,7.10
2022-11-15T12:01:07.303Z,7.00
2022-11-15T12:03:45.348Z,7.20
2022-11-15T12:06:43.710Z,7.00
2022-11-15T12:09:28.917Z,6.90
2022-11-15T12:12:28.494Z,7.00
2022-11-15T12:15:15.232Z,7.00
2022-11-15T12:17:43.354Z,6.90
2022-11-15T12:20:28.883Z,6.80
2022-11-15T12:23:05.988Z,6.80
2022-11-15T12:25:51.600Z,6.90
2022-11-15T12:29:04.448Z,6.80
2022-11-15T12:31:36.459Z,6.90
2022-11-15T12:34:26.633Z,7.00
2022-11-15T12:36:53.906Z,7.00
2022-11-15T12:39:42.085Z,6.90
2022-11-15T12:42:09.373Z,6.90
2022-11-15T12:44:37.346Z,7.00
2022-11-15T12:47:10.846Z,6.90
2022-11-15T12:49:38.425Z,6.90
2022-11-15T12:52:08.417Z,7.00
2022-11-15T12:54:41.925Z,7.00
2022-11-15T12:57:09.333Z,7.00
2022-11-15T12:59:56.523Z,6.90
2022-11-15T13:02:30.951Z,6.90
2022-11-15T13:05:17.053Z,6.80
2022-11-15T13:07:44.524Z,6.90
2022-11-15T13:10:28.715Z,6.80
2022-11-15T13:12:59.122Z,6.80
2022-11-15T13:15:57.773Z,6.80
2022-11-15T13:18:42.058Z,6.80
2022-11-15T13:21:42.665Z,6.70
2022-11-15T13:24:18.930Z,6.80
2022-11-15T13:26:49.594Z,6.70
2022-11-15T13:29:34.550Z,6.70
2022-11-15T13:32:04.363Z,6.60
2022-11-15T13:34:51.037Z,6.60
2022-11-15T13:37:23.337Z,6.60
2022-11-15T13:39:52.857Z,6.60
2022-11-15T13:42:23.818Z,6.60
2022-11-15T13:45:02.035Z,6.50
2022-11-15T13:47:32.762Z,6.60
2022-11-15T13:50:02.335Z,6.60
2022-11-15T13:52:35.273Z,6.50
2022-11-15T13:55:09.614Z,6.50
2022-11-15T13:57:44.144Z,6.50
2022-11-15T14:00:29.715Z,6.50
2022-11-15T14:03:06.580Z,6.50
2022-11-15T14:05:34.332Z,6.50
2022-11-15T14:08:22.139Z,6.50
2022-11-15T14:10:50.975Z,6.50
2022-11-15T14:13:31.892Z,6.50
2022-11-15T14:16:22.865Z,6.50
2022-11-15T14:18:53.547Z,6.40
2022-11-15T14:21:21.719Z,6.40
2022-11-15T14:23:50.227Z,6.40
2022-11-15T14:26:35.150Z,6.30
2022-11-15T14:29:25.223Z,6.40
2022-11-15T14:31:53.487Z,6.40
2022-11-15T14:34:23.357Z,6.40
2022-11-15T14:36:50.825Z,6.40
2022-11-15T14:39:18.598Z,6.40
2022-11-15T14:41:46.033Z,6.30
2022-11-15T14:44:13.916Z,6.30
2022-11-15T14:46:41.499Z,6.30
2022-11-15T14:49:10.252Z,6.30
2022-11-15T14:51:38.211Z,6.20
2022-11-15T14:54:06.538Z,6.20
2022-11-15T14:56:34.024Z,6.20
2022-11-15T14:59:02.158Z,6.20
2022-11-15T15:01:30.450Z,6.20
2022-11-15T15:03:59.681Z,6.20
2022-11-15T15:06:28.428Z,6.20
2022-11-15T15:08:56.993Z,6.10
2022-11-15T15:11:30.638Z,6.10
2022-11-15T15:14:02.531Z,6.10
2022-11-15T15:16:32.184Z,6.10
2022-11-15T15:19:02.894Z,6.10
2022-11-15T15:21:37.199Z,6.00
2022-11-15T15:24:06.445Z,6.00
2022-11-15T15:26:37.775Z,6.00
2022-11-15T15:29:05.971Z,6.10
2022-11-15T15:31:34.260Z,6.10
2022-11-15T15:34:02.740Z,6.00
2022-11-15T15:36:30.570Z,6.00
2022-11-15T15:38:59.530Z,6.10
2022-11-15T15:41:27.443Z,6.00
2022-11-15T15:43:55.084Z,6.10
2022-11-15T15:46:23.196Z,6.00
2022-11-15T15:48:51.696Z,6.00
2022-11-15T15:51:20.671Z,6.10
2022-11-15T15:53:50.754Z,6.00
2022-11-15T15:56:20.262Z,6.00
2022-11-15T15:58:49.410Z,6.00
2022-11-15T16:01:16.954Z,6.00
2022-11-15T16:03:45.046Z,6.00
2022-11-15T16:06:40.470Z,6.10
2022-11-15T16:09:16.439Z,6.00
2022-11-15T16:11:48.385Z,6.00
2022-11-15T16:14:17.677Z,6.00
2022-11-15T16:16:47.153Z,6.00
2022-11-15T16:19:15.298Z,6.00
2022-11-15T16:21:43.281Z,6.00
2022-11-15T16:24:11.320Z,5.90
2022-11-15T16:26:39.391Z,6.00
2022-11-15T16:29:08.127Z,6.00
2022-11-15T16:31:35.521Z,6.00
2022-11-15T16:34:03.283Z,6.00
2022-11-15T16:36:33.913Z,6.00
2022-11-15T16:39:05.099Z,6.00
2022-11-15T16:41:33.118Z,6.00
2022-11-15T16:44:01.288Z,6.00
2022-11-15T16:46:30.487Z,6.00
2022-11-15T16:48:58.343Z,6.00
2022-11-15T16:51:25.897Z,6.00
2022-11-15T16:53:53.666Z,6.00
2022-11-15T16:56:29.399Z,6.00
2022-11-15T16:58:59.819Z,6.00
2022-11-15T17:01:33.754Z,6.00
2022-11-15T17:04:13.291Z,6.00
2022-11-15T17:06:42.992Z,6.00
2022-11-15T17:09:25.466Z,6.00
2022-11-15T17:11:53.679Z,6.00
2022-11-15T17:14:22.577Z,6.00
2022-11-15T17:16:49.863Z,6.00
2022-11-15T17:19:20.244Z,6.00
2022-11-15T17:21:51.943Z,6.00
2022-11-15T17:24:21.273Z,6.00
2022-11-15T17:26:49.434Z,6.00
2022-11-15T17:29:17.404Z,6.00
2022-11-15T17:31:45.019Z,6.00
2022-11-15T17:34:12.922Z,6.00
2022-11-15T17:36:40.748Z,6.00
2022-11-15T17:39:08.495Z,6.00
2022-11-15T17:41:35.882Z,6.00
2022-11-15T17:44:03.890Z,6.10
2022-11-15T17:46:32.404Z,6.10
2022-11-15T17:49:00.358Z,6.00
2022-11-15T17:51:28.387Z,6.10
2022-11-15T17:53:56.322Z,6.10
2022-11-15T17:56:25.949Z,6.10
2022-11-15T17:59:03.167Z,6.10
2022-11-15T18:01:36.194Z,6.00
2022-11-15T18:04:09.203Z,6.10
2022-11-15T18:06:37.014Z,6.10
2022-11-15T18:09:04.993Z,6.10
2022-11-15T18:11:34.978Z,6.00
2022-11-15T18:14:04.426Z,6.00
2022-11-15T18:16:34.401Z,6.10
2022-11-15T18:19:08.950Z,6.10
2022-11-15T18:24:45.062Z,6.10
2022-11-15T18:27:12.507Z,6.10
2022-11-15T18:29:40.278Z,6.10
2022-11-15T18:32:12.630Z,6.10
2022-11-15T18:34:40.387Z,6.20
2022-11-15T18:37:08.231Z,6.10
2022-11-15T18:39:36.122Z,6.10
2022-11-15T18:42:03.941Z,6.10
2022-11-15T18:44:31.766Z,6.10
2022-11-15T18:46:59.274Z,6.10
2022-11-15T18:49:27.253Z,6.10
2022-11-15T18:51:55.207Z,6.10
2022-11-15T18:54:28.116Z,6.10
2022-11-15T18:56:58.319Z,6.20
2022-11-15T18:59:27.878Z,6.20
2022-11-15T19:01:56.195Z,6.20
2022-11-15T19:04:24.206Z,6.10
2022-11-15T19:06:53.084Z,6.20
2022-11-15T19:09:21.044Z,6.20
2022-11-15T19:11:51.815Z,6.20
2022-11-15T19:14:24.300Z,6.20
2022-11-15T19:16:52.878Z,6.20
2022-11-15T19:19:23.976Z,6.20
2022-11-15T19:21:52.950Z,6.20
2022-11-15T19:24:21.448Z,6.10
2022-11-15T19:26:49.066Z,6.20
2022-11-15T19:29:18.688Z,6.10
2022-11-15T19:31:47.933Z,6.10
2022-11-15T19:34:16.687Z,6.10
2022-11-15T19:36:45.578Z,6.10
2022-11-15T19:39:15.415Z,6.20
2022-11-15T19:41:44.912Z,6.10
2022-11-15T19:44:14.921Z,6.10
2022-11-15T19:46:44.827Z,6.10
2022-11-15T19:49:14.263Z,6.10
2022-11-15T19:51:44.695Z,6.20
2022-11-15T19:54:14.259Z,6.10
2022-11-15T19:56:43.694Z,6.10
2022-11-15T19:59:13.450Z,6.10
2022-11-15T20:01:42.455Z,6.10
2022-11-15T20:04:11.642Z,6.00
2022-11-15T20:06:43.502Z,6.10
2022-11-15T20:09:15.058Z,6.10
2022-11-15T20:11:44.875Z,6.00
2022-11-15T20:14:14.725Z,6.10
2022-11-15T20:16:46.407Z,6.10
2022-11-15T20:19:18.398Z,6.10
2022-11-15T20:21:47.914Z,6.00
2022-11-15T20:24:17.147Z,6.10
2022-11-15T20:26:44.915Z,6.00
2022-11-15T20:29:13.384Z,6.00
2022-11-15T20:31:41.297Z,6.00
2022-11-15T20:34:09.600Z,6.10
2022-11-15T20:36:37.650Z,6.00
2022-11-15T20:39:06.032Z,6.00
2022-11-15T20:41:34.587Z,6.00
2022-11-15T20:44:03.816Z,6.00
2022-11-15T20:46:32.333Z,5.90
2022-11-15T20:49:00.609Z,5.90
2022-11-15T20:51:28.352Z,5.90
2022-11-15T20:53:56.850Z,5.90
2022-11-15T20:56:25.142Z,5.90
2022-11-15T20:58:53.714Z,5.90
2022-11-15T21:01:25.225Z,5.90
2022-11-15T21:03:56.298Z,5.90
2022-11-15T21:06:26.120Z,5.90
2022-11-15T21:09:14.156Z,5.80
2022-11-15T21:12:01.595Z,5.80
2022-11-15T21:14:30.256Z,5.70
2022-11-15T21:16:59.009Z,5.60
2022-11-15T21:19:32.653Z,5.60
2022-11-15T21:22:05.056Z,5.60
2022-11-15T21:24:33.559Z,5.70
2022-11-15T21:27:01.542Z,5.70
2022-11-15T21:29:36.442Z,5.60
2022-11-15T21:32:09.146Z,5.60
2022-11-15T21:34:38.606Z,5.60
2022-11-15T21:37:07.231Z,5.60
2022-11-15T21:39:35.486Z,5.60
2022-11-15T21:42:03.551Z,5.60
2022-11-15T21:44:32.158Z,5.60
2022-11-15T21:47:03.425Z,5.60
2022-11-15T21:49:31.401Z,5.60
2022-11-15T21:51:58.895Z,5.60
2022-11-15T21:54:26.813Z,5.70
2022-11-15T21:56:54.334Z,5.70
2022-11-15T21:59:22.297Z,5.60
2022-11-15T22:02:08.236Z,5.70
2022-11-15T22:04:45.242Z,5.70
2022-11-15T22:07:12.835Z,5.70
2022-11-15T22:09:41.127Z,5.70
2022-11-15T22:12:08.850Z,5.70
2022-11-15T22:14:36.820Z,5.60
2022-11-15T22:17:04.525Z,5.70
2022-11-15T22:19:32.330Z,5.70
2022-11-15T22:22:00.048Z,5.70
2022-11-15T22:24:27.916Z,5.70
2022-11-15T22:26:55.631Z,5.70
2022-11-15T22:29:23.524Z,5.70
2022-11-15T22:31:51.020Z,5.70
2022-11-15T22:34:18.940Z,5.70
2022-11-15T22:37:18.367Z,5.70
2022-11-15T22:39:34.285Z,5.70
2022-11-15T22:42:01.807Z,5.70
2022-11-15T22:44:29.676Z,5.70
2022-11-15T22:46:57.064Z,5.70
2022-11-15T22:49:24.733Z,5.70
2022-11-15T22:51:52.209Z,5.70
2022-11-15T22:54:20.211Z,5.70
2022-11-15T22:56:47.801Z,5.70
2022-11-15T22:59:15.635Z,5.70
2022-11-15T23:01:43.333Z,5.70
2022-11-15T23:04:11.141Z,5.70
2022-11-15T23:06:38.716Z,5.80
2022-11-15T23:09:06.461Z,5.80
2022-11-15T23:11:52.272Z,5.80
2022-11-15T23:14:20.123Z,5.70
2022-11-15T23:16:47.503Z,5.80
2022-11-15T23:19:15.366Z,5.80
2022-11-15T23:22:03.528Z,5.80
2022-11-15T23:24:32.936Z,5.70
2022-11-15T23:27:07.475Z,5.80
2022-11-15T23:29:57.332Z,5.80
2022-11-15T23:32:43.390Z,5.80
2022-11-15T23:35:11.086Z,5.80
2022-11-15T23:37:38.612Z,5.80
2022-11-15T23:40:07.343Z,5.80
2022-11-15T23:42:34.807Z,5.80
2022-11-15T23:45:02.606Z,5.80
2022-11-15T23:47:30.063Z,5.80
2022-11-15T23:49:57.824Z,5.80
2022-11-15T23:52:25.830Z,5.80
2022-11-15T23:54:53.689Z,5.80
2022-11-15T23:57:21.190Z,5.80
2022-11-15T23:59:48.993Z,5.80
